createdAt,value
2022-09-16T00:00:37.831Z,0.40
2022-09-16T00:03:04.488Z,0.50
2022-09-16T00:05:31.115Z,0.50
2022-09-16T00:07:57.742Z,0.43
2022-09-16T00:10:24.349Z,0.45
2022-09-16T00:12:51.217Z,0.60
2022-09-16T00:15:18.593Z,0.70
2022-09-16T00:17:45.270Z,1.50
2022-09-16T00:20:12.059Z,1.63
2022-09-16T00:22:38.766Z,0.50
2022-09-16T00:25:05.792Z,0.68
2022-09-16T00:27:32.444Z,0.63
2022-09-16T00:29:59.102Z,0.73
2022-09-16T00:32:25.798Z,0.68
2022-09-16T00:34:52.506Z,0.50
2022-09-16T00:37:19.282Z,0.40
2022-09-16T00:39:49.126Z,0.88
2022-09-16T00:42:16.860Z,0.43
2022-09-16T00:44:57.342Z,0.70
2022-09-16T00:47:40.188Z,0.65
2022-09-16T00:50:18.250Z,1.05
2022-09-16T00:52:45.499Z,0.45
2022-09-16T00:55:17.331Z,0.82
2022-09-16T00:57:45.372Z,0.70
2022-09-16T01:00:13.884Z,0.40
2022-09-16T01:02:44.084Z,0.77
2022-09-16T01:05:15.579Z,0.60
2022-09-16T01:07:50.028Z,0.88
2022-09-16T01:10:19.915Z,0.88
2022-09-16T01:12:51.899Z,0.47
2022-09-16T01:15:18.719Z,0.80
2022-09-16T01:17:54.043Z,1.30
2022-09-16T01:20:42.226Z,0.63
2022-09-16T01:23:52.110Z,0.85
2022-09-16T01:26:36.694Z,1.05
2022-09-16T01:29:41.891Z,1.38
2022-09-16T01:32:38.785Z,1.13
2022-09-16T01:35:13.968Z,1.40
2022-09-16T01:38:06.436Z,1.10
2022-09-16T01:40:50.963Z,1.30
2022-09-16T01:43:54.771Z,1.52
2022-09-16T01:46:31.202Z,1.40
2022-09-16T01:49:20.303Z,1.45
2022-09-16T01:52:31.435Z,1.13
2022-09-16T01:55:04.866Z,1.30
2022-09-16T01:57:34.324Z,1.30
2022-09-16T02:00:07.080Z,1.35
2022-09-16T02:02:50.322Z,1.50
2022-09-16T02:05:26.190Z,1.70
2022-09-16T02:07:59.244Z,1.40
2022-09-16T02:10:48.088Z,1.70
2022-09-16T02:13:30.857Z,2.00
2022-09-16T02:16:05.718Z,1.60
2022-09-16T02:18:36.850Z,1.40
2022-09-16T02:21:06.999Z,1.40
2022-09-16T02:23:40.319Z,1.42
2022-09-16T02:26:09.399Z,1.40
2022-09-16T02:28:41.300Z,1.30
2022-09-16T02:31:11.935Z,1.40
2022-09-16T02:33:48.555Z,1.58
2022-09-16T02:36:20.278Z,1.60
2022-09-16T02:38:51.613Z,2.00
2022-09-16T02:41:18.310Z,1.10
2022-09-16T02:43:45.908Z,1.40
2022-09-16T02:46:21.892Z,1.20
2022-09-16T02:49:09.524Z,1.30
2022-09-16T02:52:04.056Z,1.40
2022-09-16T02:54:41.843Z,1.40
2022-09-16T02:57:09.461Z,1.45
2022-09-16T02:59:37.243Z,1.48
2022-09-16T03:02:04.096Z,1.67
2022-09-16T03:04:31.002Z,1.58
2022-09-16T03:06:57.958Z,1.67
2022-09-16T03:09:24.786Z,1.90
2022-09-16T03:12:09.371Z,1.98
2022-09-16T03:14:51.272Z,1.65
2022-09-16T03:17:55.145Z,1.83
2022-09-16T03:20:46.346Z,2.30
2022-09-16T03:23:25.403Z,2.38
2022-09-16T03:26:14.819Z,2.58
2022-09-16T03:29:02.462Z,2.50
2022-09-16T03:31:33.321Z,2.20
2022-09-16T03:34:05.037Z,2.17
2022-09-16T03:36:37.215Z,2.30
2022-09-16T03:39:04.635Z,2.08
2022-09-16T03:41:33.568Z,2.47
2022-09-16T03:44:03.977Z,2.28
2022-09-16T03:46:31.711Z,2.40
2022-09-16T03:48:58.902Z,2.42
2022-09-16T03:51:25.893Z,2.70
2022-09-16T03:53:52.914Z,2.65
2022-09-16T03:56:19.584Z,2.38
2022-09-16T03:58:48.016Z,2.88
2022-09-16T04:01:15.032Z,2.50
2022-09-16T04:03:42.063Z,3.08
2022-09-16T04:06:09.547Z,2.45
2022-09-16T04:08:37.156Z,3.03
2022-09-16T04:11:05.523Z,2.78
2022-09-16T04:13:36.541Z,2.55
2022-09-16T04:16:04.943Z,2.90
2022-09-16T04:18:33.071Z,3.05
2022-09-16T04:21:00.918Z,2.83
2022-09-16T04:23:28.737Z,2.53
2022-09-16T04:26:00.823Z,2.65
2022-09-16T04:28:28.511Z,2.70
2022-09-16T04:30:59.255Z,2.50
2022-09-16T04:33:31.508Z,2.65
2022-09-16T04:36:13.479Z,3.60
2022-09-16T04:38:44.496Z,2.70
2022-09-16T04:41:15.837Z,3.03
2022-09-16T04:43:42.540Z,2.70
2022-09-16T04:46:09.641Z,3.00
2022-09-16T04:48:36.692Z,2.88
2022-09-16T04:51:11.914Z,2.72
2022-09-16T04:53:39.894Z,2.47
2022-09-16T04:56:18.256Z,2.45
2022-09-16T04:58:47.789Z,2.22
2022-09-16T05:01:17.916Z,2.20
2022-09-16T05:03:47.276Z,2.08
2022-09-16T05:06:20.519Z,2.78
2022-09-16T05:08:48.576Z,2.22
2022-09-16T05:11:18.821Z,2.20
2022-09-16T05:13:45.697Z,1.92
2022-09-16T05:16:15.081Z,2.75
2022-09-16T05:18:43.771Z,1.67
2022-09-16T05:21:13.247Z,2.10
2022-09-16T05:23:45.847Z,2.42
2022-09-16T05:26:16.435Z,2.17
2022-09-16T05:28:43.431Z,2.50
2022-09-16T05:31:22.300Z,2.47
2022-09-16T05:34:04.092Z,2.40
2022-09-16T05:36:33.668Z,2.25
2022-09-16T05:41:47.776Z,2.13
2022-09-16T05:44:14.804Z,2.33
2022-09-16T05:46:42.104Z,2.78
2022-09-16T05:49:09.802Z,2.15
2022-09-16T05:51:38.632Z,2.13
2022-09-16T05:54:05.457Z,2.00
2022-09-16T05:56:32.235Z,2.22
2022-09-16T05:59:00.324Z,2.17
2022-09-16T06:01:35.185Z,2.10
2022-09-16T06:04:06.424Z,2.10
2022-09-16T06:06:41.445Z,2.33
2022-09-16T06:09:20.275Z,2.20
2022-09-16T06:11:52.211Z,2.40
2022-09-16T06:14:20.738Z,2.13
2022-09-16T06:16:47.561Z,2.05
2022-09-16T06:19:17.165Z,2.10
2022-09-16T06:21:44.790Z,2.42
2022-09-16T06:24:13.028Z,2.55
2022-09-16T06:26:41.790Z,2.85
2022-09-16T06:29:09.547Z,2.78
2022-09-16T06:31:37.574Z,2.60
2022-09-16T06:34:05.596Z,2.63
2022-09-16T06:36:34.877Z,2.83
2022-09-16T06:39:01.558Z,2.05
2022-09-16T06:41:28.653Z,2.50
2022-09-16T06:43:55.231Z,2.28
2022-09-16T06:46:24.256Z,2.20
2022-09-16T06:48:54.203Z,2.08
2022-09-16T06:51:31.391Z,2.60
2022-09-16T06:54:06.692Z,2.22
2022-09-16T06:56:35.950Z,2.38
2022-09-16T06:59:03.504Z,2.50
2022-09-16T07:01:31.676Z,2.63
2022-09-16T07:03:59.283Z,2.60
2022-09-16T07:09:16.569Z,2.15
2022-09-16T07:11:43.242Z,1.80
2022-09-16T07:14:09.918Z,2.25
2022-09-16T07:16:36.633Z,1.58
2022-09-16T07:19:04.174Z,1.73
2022-09-16T07:21:31.447Z,1.40
2022-09-16T07:24:00.108Z,1.60
2022-09-16T07:26:29.501Z,1.40
2022-09-16T07:28:59.823Z,1.55
2022-09-16T07:31:29.214Z,1.77
2022-09-16T07:34:02.816Z,1.73
2022-09-16T07:36:34.022Z,1.40
2022-09-16T07:39:01.271Z,1.48
2022-09-16T07:41:30.412Z,1.42
2022-09-16T07:43:59.239Z,1.45
2022-09-16T07:46:27.837Z,1.60
2022-09-16T07:48:54.787Z,2.38
2022-09-16T07:51:23.534Z,1.90
2022-09-16T07:54:03.468Z,2.40
2022-09-16T07:56:34.263Z,1.90
2022-09-16T07:59:02.630Z,1.92
2022-09-16T08:01:31.178Z,1.85
2022-09-16T08:03:58.566Z,2.05
2022-09-16T08:06:27.933Z,2.20
2022-09-16T08:09:02.471Z,2.00
2022-09-16T08:11:42.382Z,2.15
2022-09-16T08:14:09.018Z,2.00
2022-09-16T08:16:35.663Z,1.60
2022-09-16T08:19:02.272Z,2.08
2022-09-16T08:21:29.833Z,1.98
2022-09-16T08:23:57.498Z,1.90
2022-09-16T08:26:24.574Z,1.83
2022-09-16T08:29:07.786Z,2.00
2022-09-16T08:31:36.711Z,2.03
2022-09-16T08:34:03.563Z,2.10
2022-09-16T08:36:30.199Z,2.60
2022-09-16T08:38:57.393Z,2.28
2022-09-16T08:42:00.974Z,2.30
2022-09-16T08:44:57.620Z,2.28
2022-09-16T08:47:52.587Z,1.55
2022-09-16T08:50:29.117Z,1.90
2022-09-16T08:52:59.045Z,1.83
2022-09-16T08:55:31.657Z,1.95
2022-09-16T08:58:17.642Z,1.55
2022-09-16T09:00:47.318Z,1.70
2022-09-16T09:03:30.798Z,1.83
2022-09-16T09:05:59.954Z,1.90
2022-09-16T09:08:32.606Z,1.98
2022-09-16T09:11:20.522Z,2.30
2022-09-16T09:14:10.531Z,2.33
2022-09-16T09:17:18.696Z,2.50
2022-09-16T09:20:31.143Z,2.30
2022-09-16T09:23:14.754Z,2.20
2022-09-16T09:25:53.248Z,2.05
2022-09-16T09:28:28.764Z,1.80
2022-09-16T09:31:10.054Z,1.90
2022-09-16T09:34:04.896Z,2.05
2022-09-16T09:37:01.361Z,2.13
2022-09-16T09:40:09.356Z,1.70
2022-09-16T09:42:40.979Z,1.75
2022-09-16T09:45:28.361Z,1.40
2022-09-16T09:48:01.214Z,1.65
2022-09-16T09:50:33.790Z,1.38
2022-09-16T09:53:12.228Z,1.25
2022-09-16T09:55:41.427Z,1.27
2022-09-16T09:58:24.603Z,0.98
2022-09-16T10:00:53.594Z,1.00
2022-09-16T10:03:20.295Z,1.00
2022-09-16T10:05:47.786Z,1.02
2022-09-16T10:08:17.838Z,1.20
2022-09-16T10:10:53.816Z,0.73
2022-09-16T10:13:22.184Z,0.90
2022-09-16T10:15:53.374Z,0.60
2022-09-16T10:18:29.666Z,0.60
2022-09-16T10:21:09.467Z,0.60
2022-09-16T10:23:36.433Z,0.43
2022-09-16T10:26:08.463Z,0.80
2022-09-16T10:28:35.315Z,0.73
2022-09-16T10:31:02.543Z,0.75
2022-09-16T10:33:36.391Z,0.50
2022-09-16T10:36:07.381Z,0.63
2022-09-16T10:38:41.363Z,0.50
2022-09-16T10:41:26.780Z,0.70
2022-09-16T10:43:59.725Z,0.40
2022-09-16T10:46:37.779Z,0.30
2022-09-16T10:49:12.566Z,0.35
2022-09-16T10:51:39.196Z,0.30
2022-09-16T10:54:06.371Z,0.43
2022-09-16T10:56:46.011Z,0.40
2022-09-16T10:59:14.129Z,0.68
2022-09-16T11:01:46.413Z,0.50
2022-09-16T11:04:27.885Z,0.70
2022-09-16T11:07:00.358Z,0.50
2022-09-16T11:09:45.104Z,0.40
2022-09-16T11:12:23.887Z,0.60
2022-09-16T11:15:16.537Z,0.40
2022-09-16T11:17:55.799Z,0.43
2022-09-16T11:20:45.208Z,0.40
2022-09-16T11:23:36.782Z,0.65
2022-09-16T11:26:22.130Z,0.47
2022-09-16T11:29:03.621Z,0.40
2022-09-16T11:31:30.280Z,0.43
2022-09-16T11:34:09.400Z,0.65
2022-09-16T11:37:13.809Z,0.50
2022-09-16T11:39:49.299Z,0.32
2022-09-16T11:42:32.704Z,0.50
2022-09-16T11:45:21.084Z,0.63
2022-09-16T11:48:03.942Z,0.30
2022-09-16T11:50:42.378Z,0.30
2022-09-16T11:53:44.787Z,0.40
2022-09-16T11:56:12.326Z,0.40
2022-09-16T11:58:47.887Z,0.38
2022-09-16T12:01:44.483Z,0.40
2022-09-16T12:04:17.264Z,0.30
2022-09-16T12:07:01.070Z,0.30
2022-09-16T12:09:59.994Z,0.20
2022-09-16T12:12:33.826Z,0.20
2022-09-16T12:15:07.017Z,0.30
2022-09-16T12:17:37.693Z,0.30
2022-09-16T12:20:16.460Z,0.30
2022-09-16T12:22:51.855Z,0.35
2022-09-16T12:25:25.136Z,0.45
2022-09-16T12:28:05.898Z,0.28
2022-09-16T12:30:40.380Z,0.35
2022-09-16T12:33:27.926Z,0.50
2022-09-16T12:36:02.610Z,0.38
2022-09-16T12:38:29.356Z,0.32
2022-09-16T12:41:23.755Z,0.45
2022-09-16T12:44:16.971Z,0.30
2022-09-16T12:47:10.085Z,0.45
2022-09-16T12:50:16.559Z,0.50
2022-09-16T12:53:21.442Z,0.70
2022-09-16T12:56:15.970Z,0.40
2022-09-16T12:59:16.205Z,0.32
2022-09-16T13:01:54.616Z,0.52
2022-09-16T13:04:32.474Z,0.32
2022-09-16T13:06:59.973Z,0.45
2022-09-16T13:09:33.308Z,0.47
2022-09-16T13:14:59.371Z,0.35
2022-09-16T13:17:38.149Z,0.40
2022-09-16T13:20:19.208Z,0.50
2022-09-16T13:22:58.039Z,0.30
2022-09-16T13:26:05.238Z,0.55
2022-09-16T13:28:39.320Z,0.55
2022-09-16T13:31:17.584Z,0.50
2022-09-16T13:34:14.051Z,0.50
2022-09-16T13:36:40.715Z,0.30
2022-09-16T13:39:14.172Z,0.70
2022-09-16T13:41:46.041Z,1.65
2022-09-16T13:44:38.425Z,0.50
2022-09-16T13:47:11.116Z,0.65
2022-09-16T13:49:57.518Z,0.52
2022-09-16T13:52:35.171Z,0.52
2022-09-16T13:55:10.632Z,0.88
2022-09-16T13:57:41.172Z,0.52
2022-09-16T14:00:22.785Z,0.50
2022-09-16T14:03:13.613Z,0.38
2022-09-16T14:05:55.374Z,0.50
2022-09-16T14:08:33.005Z,0.47
2022-09-16T14:11:17.809Z,0.60
2022-09-16T14:16:30.349Z,0.57
2022-09-16T14:19:08.335Z,0.70
2022-09-16T14:21:35.108Z,0.88
2022-09-16T14:24:19.161Z,0.70
2022-09-16T14:26:57.338Z,0.60
2022-09-16T14:29:27.091Z,0.70
2022-09-16T14:31:55.441Z,0.47
2022-09-16T14:34:27.421Z,0.50
2022-09-16T14:36:54.360Z,0.50
2022-09-16T14:39:23.841Z,0.60
2022-09-16T14:41:55.295Z,0.40
2022-09-16T14:44:28.632Z,0.50
2022-09-16T14:47:32.406Z,0.30
2022-09-16T14:50:14.993Z,0.40
2022-09-16T14:52:41.933Z,0.28
2022-09-16T14:55:20.642Z,0.30
2022-09-16T14:57:47.543Z,0.43
2022-09-16T15:00:17.107Z,0.40
2022-09-16T15:02:54.527Z,0.35
2022-09-16T15:05:26.847Z,0.40
2022-09-16T15:08:13.776Z,0.40
2022-09-16T15:10:51.875Z,0.30
2022-09-16T15:13:22.765Z,0.45
2022-09-16T15:15:54.395Z,0.50
2022-09-16T15:18:28.651Z,0.68
2022-09-16T15:21:10.408Z,0.30
2022-09-16T15:23:39.993Z,0.43
2022-09-16T15:26:19.538Z,0.30
2022-09-16T15:28:56.290Z,0.55
2022-09-16T15:31:39.080Z,0.50
2022-09-16T15:34:26.595Z,0.40
2022-09-16T15:36:58.339Z,0.40
2022-09-16T15:39:29.333Z,0.60
2022-09-16T15:42:18.965Z,0.43
2022-09-16T15:44:55.122Z,0.40
2022-09-16T15:47:27.437Z,0.30
2022-09-16T15:50:00.913Z,0.20
2022-09-16T15:52:27.794Z,1.17
2022-09-16T15:54:59.348Z,0.35
2022-09-16T15:57:34.513Z,0.30
2022-09-16T16:00:16.287Z,0.15
2022-09-16T16:02:57.054Z,0.30
2022-09-16T16:05:30.036Z,0.30
2022-09-16T16:08:09.590Z,0.30
2022-09-16T16:10:36.513Z,0.85
2022-09-16T16:13:04.652Z,0.40
2022-09-16T16:15:34.867Z,0.43
2022-09-16T16:18:04.946Z,0.38
2022-09-16T16:20:33.840Z,0.40
2022-09-16T16:23:01.694Z,0.50
2022-09-16T16:25:28.826Z,0.50
2022-09-16T16:27:55.609Z,0.35
2022-09-16T16:30:22.385Z,0.40
2022-09-16T16:32:49.084Z,0.30
2022-09-16T16:35:15.816Z,0.60
2022-09-16T16:37:47.134Z,0.60
2022-09-16T16:40:15.363Z,0.50
2022-09-16T16:42:43.434Z,0.40
2022-09-16T16:45:13.090Z,0.50
2022-09-16T16:47:40.110Z,0.40
2022-09-16T16:50:07.032Z,0.43
2022-09-16T16:52:33.729Z,0.57
2022-09-16T16:55:00.396Z,0.47
2022-09-16T16:57:27.098Z,0.55
2022-09-16T16:59:53.762Z,0.40
2022-09-16T17:02:20.479Z,0.55
2022-09-16T17:04:47.170Z,0.47
2022-09-16T17:07:25.564Z,0.50
2022-09-16T17:09:53.856Z,0.40
2022-09-16T17:12:20.670Z,0.60
2022-09-16T17:14:47.525Z,0.60
2022-09-16T17:17:14.195Z,0.85
2022-09-16T17:19:40.852Z,0.68
2022-09-16T17:22:07.532Z,0.50
2022-09-16T17:24:34.859Z,0.65
2022-09-16T17:27:02.041Z,1.05
2022-09-16T17:29:28.869Z,0.70
2022-09-16T17:31:57.053Z,0.82
2022-09-16T17:34:26.119Z,0.63
2022-09-16T17:36:52.793Z,0.68
2022-09-16T17:39:21.160Z,0.98
2022-09-16T17:41:48.858Z,1.00
2022-09-16T17:44:16.891Z,0.63
2022-09-16T17:46:44.264Z,0.45
2022-09-16T17:49:15.897Z,0.80
2022-09-16T17:51:43.198Z,0.60
2022-09-16T17:54:10.506Z,0.50
2022-09-16T17:56:37.442Z,0.57
2022-09-16T17:59:04.079Z,0.90
2022-09-16T18:01:30.931Z,0.60
2022-09-16T18:03:58.056Z,0.35
2022-09-16T18:06:43.191Z,0.50
2022-09-16T18:11:37.874Z,0.77
2022-09-16T18:14:08.030Z,0.77
2022-09-16T18:16:35.001Z,0.35
2022-09-16T18:19:02.702Z,0.80
2022-09-16T18:21:30.746Z,0.70
2022-09-16T18:23:59.902Z,0.50
2022-09-16T18:26:27.482Z,0.60
2022-09-16T18:29:12.368Z,0.80
2022-09-16T18:31:41.282Z,0.80
2022-09-16T18:34:07.977Z,0.80
2022-09-16T18:36:36.775Z,0.95
2022-09-16T18:39:04.214Z,0.70
2022-09-16T18:41:34.879Z,0.90
2022-09-16T18:44:07.481Z,1.50
2022-09-16T18:46:36.602Z,1.20
2022-09-16T18:49:04.671Z,1.38
2022-09-16T18:51:34.527Z,1.08
2022-09-16T18:54:04.110Z,0.77
2022-09-16T18:56:33.876Z,1.23
2022-09-16T18:59:23.719Z,1.67
2022-09-16T19:01:53.114Z,1.08
2022-09-16T19:04:22.421Z,1.23
2022-09-16T19:06:51.841Z,1.13
2022-09-16T19:09:20.601Z,1.27
2022-09-16T19:11:47.879Z,0.93
2022-09-16T19:14:15.191Z,0.80
2022-09-16T19:16:44.114Z,1.00
2022-09-16T19:19:13.344Z,1.25
2022-09-16T19:21:40.908Z,1.20
2022-09-16T19:24:14.769Z,0.98
2022-09-16T19:26:42.675Z,1.05
2022-09-16T19:29:10.706Z,1.05
2022-09-16T19:31:39.537Z,1.63
2022-09-16T19:34:06.800Z,1.05
2022-09-16T19:36:34.704Z,1.00
2022-09-16T19:39:01.686Z,0.90
2022-09-16T19:41:30.716Z,0.93
2022-09-16T19:43:59.580Z,1.00
2022-09-16T19:46:28.430Z,0.88
2022-09-16T19:48:55.575Z,0.75
2022-09-16T19:51:24.846Z,0.93
2022-09-16T19:53:53.250Z,1.02
2022-09-16T19:56:22.695Z,0.82
2022-09-16T19:58:51.022Z,0.85
2022-09-16T20:01:26.746Z,1.58
2022-09-16T20:03:54.419Z,1.15
2022-09-16T20:06:30.760Z,1.15
2022-09-16T20:08:59.843Z,0.50
2022-09-16T20:11:29.808Z,0.80
2022-09-16T20:14:02.104Z,0.60
2022-09-16T20:16:31.637Z,0.85
2022-09-16T20:18:58.492Z,0.60
2022-09-16T20:21:26.675Z,0.80
2022-09-16T20:23:54.540Z,0.73
2022-09-16T20:26:22.722Z,0.90
2022-09-16T20:28:51.914Z,0.75
2022-09-16T20:31:27.340Z,1.30
2022-09-16T20:33:54.305Z,0.70
2022-09-16T20:36:23.401Z,1.20
2022-09-16T20:38:51.318Z,0.82
2022-09-16T20:41:21.067Z,0.65
2022-09-16T20:43:49.663Z,0.75
2022-09-16T20:46:24.264Z,0.50
2022-09-16T20:48:55.654Z,0.95
2022-09-16T20:51:25.319Z,1.10
2022-09-16T20:53:54.803Z,0.90
2022-09-16T20:56:22.752Z,1.33
2022-09-16T20:58:50.104Z,0.90
2022-09-16T21:01:29.081Z,0.65
2022-09-16T21:03:57.888Z,0.57
2022-09-16T21:06:25.616Z,0.63
2022-09-16T21:08:58.103Z,0.73
2022-09-16T21:11:25.342Z,0.70
2022-09-16T21:13:54.418Z,0.60
2022-09-16T21:16:22.458Z,0.80
2022-09-16T21:18:57.043Z,0.73
2022-09-16T21:21:25.044Z,1.33
2022-09-16T21:23:53.514Z,1.15
2022-09-16T21:26:31.313Z,1.52
2022-09-16T21:29:04.104Z,1.13
2022-09-16T21:31:37.997Z,1.05
2022-09-16T21:34:06.594Z,0.98
2022-09-16T21:36:35.244Z,1.00
2022-09-16T21:39:02.285Z,1.02
2022-09-16T21:41:28.963Z,1.52
2022-09-16T21:43:57.037Z,1.17
2022-09-16T21:46:29.696Z,0.90
2022-09-16T21:49:00.046Z,1.40
2022-09-16T21:51:28.231Z,1.00
2022-09-16T21:53:55.264Z,1.20
2022-09-16T21:56:23.272Z,1.10
2022-09-16T21:58:54.305Z,0.98
2022-09-16T22:01:24.150Z,1.10
2022-09-16T22:03:59.706Z,1.00
2022-09-16T22:06:27.144Z,1.00
2022-09-16T22:08:55.466Z,0.90
2022-09-16T22:11:24.574Z,1.35
2022-09-16T22:13:52.467Z,1.00
2022-09-16T22:16:28.036Z,0.90
2022-09-16T22:18:56.515Z,1.13
2022-09-16T22:21:24.974Z,1.27
2022-09-16T22:23:51.814Z,1.00
2022-09-16T22:26:21.147Z,1.00
2022-09-16T22:28:47.951Z,0.90
2022-09-16T22:31:29.524Z,1.20
2022-09-16T22:34:00.320Z,1.20
2022-09-16T22:36:30.485Z,1.10
2022-09-16T22:39:00.849Z,1.00
2022-09-16T22:41:28.659Z,1.00
2022-09-16T22:43:55.485Z,1.15
2022-09-16T22:46:25.646Z,0.80
2022-09-16T22:48:54.186Z,1.13
2022-09-16T22:51:21.548Z,0.90
2022-09-16T22:53:48.639Z,0.82
2022-09-16T22:56:20.754Z,0.98
2022-09-16T22:58:54.779Z,0.93
2022-09-16T23:01:24.530Z,0.65
2022-09-16T23:03:54.651Z,1.05
2022-09-16T23:06:22.059Z,0.70
2022-09-16T23:08:48.740Z,0.85
2022-09-16T23:11:19.678Z,0.85
2022-09-16T23:13:48.164Z,0.60
2022-09-16T23:16:20.993Z,0.50
2022-09-16T23:18:49.030Z,0.70
2022-09-16T23:21:17.877Z,0.80
2022-09-16T23:23:47.018Z,0.40
2022-09-16T23:26:16.546Z,0.57
2022-09-16T23:28:43.650Z,0.43
2022-09-16T23:31:13.530Z,0.40
2022-09-16T23:33:41.029Z,0.57
2022-09-16T23:36:09.758Z,0.25
2022-09-16T23:38:38.151Z,0.40
2022-09-16T23:41:10.716Z,0.30
2022-09-16T23:43:38.422Z,0.50
2022-09-16T23:46:05.702Z,0.30
2022-09-16T23:48:32.464Z,0.50
2022-09-16T23:50:59.308Z,0.35
2022-09-16T23:53:26.245Z,0.35
2022-09-16T23:55:53.131Z,0.50
2022-09-16T23:58:19.783Z,0.50
